sensor_id;sensor_type;location;lat;lon;timestamp;P1;durP1;ratioP1;P2;durP2;ratioP2
73550;SDS011;61816;53.582;10.096;2022-11-15T00:01:32;117.15;;;52.13;;
73550;SDS011;61816;53.582;10.096;2022-11-15T00:03:58;132.07;;;53.42;;
73550;SDS011;61816;53.582;10.096;2022-11-15T00:06:23;126.05;;;51.53;;
73550;SDS011;61816;53.582;10.096;2022-11-15T00:08:48;120.25;;;51.50;;
73550;SDS011;61816;53.582;10.096;2022-11-15T00:11:14;132.00;;;55.60;;
73550;SDS011;61816;53.582;10.096;2022-11-15T00:13:39;129.07;;;55.00;;
73550;SDS011;61816;53.582;10.096;2022-11-15T00:16:05;119.90;;;52.95;;
73550;SDS011;61816;53.582;10.096;2022-11-15T00:18:30;109.00;;;50.17;;
73550;SDS011;61816;53.582;10.096;2022-11-15T00:20:56;134.70;;;55.10;;
73550;SDS011;61816;53.582;10.096;2022-11-15T00:23:29;125.00;;;53.92;;
73550;SDS011;61816;53.582;10.096;2022-11-15T00:25:57;119.00;;;52.78;;
73550;SDS011;61816;53.582;10.096;2022-11-15T00:28:23;109.93;;;48.58;;
73550;SDS011;61816;53.582;10.096;2022-11-15T00:30:49;119.55;;;51.75;;
73550;SDS011;61816;53.582;10.096;2022-11-15T00:33:14;115.22;;;50.50;;
73550;SDS011;61816;53.582;10.096;2022-11-15T00:35:40;115.00;;;50.10;;
73550;SDS011;61816;53.582;10.096;2022-11-15T00:38:06;113.68;;;49.08;;
73550;SDS011;61816;53.582;10.096;2022-11-15T00:40:31;114.70;;;47.97;;
73550;SDS011;61816;53.582;10.096;2022-11-15T00:42:57;127.28;;;55.53;;
73550;SDS011;61816;53.582;10.096;2022-11-15T00:45:23;101.85;;;46.67;;
73550;SDS011;61816;53.582;10.096;2022-11-15T00:47:49;117.35;;;50.70;;
73550;SDS011;61816;53.582;10.096;2022-11-15T00:50:15;121.05;;;52.53;;
73550;SDS011;61816;53.582;10.096;2022-11-15T00:52:41;111.97;;;49.88;;
73550;SDS011;61816;53.582;10.096;2022-11-15T00:55:07;107.72;;;47.78;;
73550;SDS011;61816;53.582;10.096;2022-11-15T01:00:04;112.65;;;49.15;;
73550;SDS011;61816;53.582;10.096;2022-11-15T01:02:30;91.70;;;44.55;;
73550;SDS011;61816;53.582;10.096;2022-11-15T01:04:55;95.50;;;44.70;;
73550;SDS011;61816;53.582;10.096;2022-11-15T01:07:20;91.70;;;43.75;;
73550;SDS011;61816;53.582;10.096;2022-11-15T01:09:46;86.63;;;43.72;;
73550;SDS011;61816;53.582;10.096;2022-11-15T01:12:11;92.95;;;45.80;;
73550;SDS011;61816;53.582;10.096;2022-11-15T01:14:36;88.40;;;44.90;;
73550;SDS011;61816;53.582;10.096;2022-11-15T01:17:02;89.07;;;42.63;;
73550;SDS011;61816;53.582;10.096;2022-11-15T01:19:27;90.03;;;43.67;;
73550;SDS011;61816;53.582;10.096;2022-11-15T01:21:52;94.88;;;45.72;;
73550;SDS011;61816;53.582;10.096;2022-11-15T01:24:18;82.65;;;39.85;;
73550;SDS011;61816;53.582;10.096;2022-11-15T01:26:43;99.03;;;47.45;;
73550;SDS011;61816;53.582;10.096;2022-11-15T01:29:08;96.35;;;45.63;;
73550;SDS011;61816;53.582;10.096;2022-11-15T01:31:34;98.90;;;45.88;;
73550;SDS011;61816;53.582;10.096;2022-11-15T01:33:59;88.00;;;40.88;;
73550;SDS011;61816;53.582;10.096;2022-11-15T01:36:24;90.43;;;43.30;;
73550;SDS011;61816;53.582;10.096;2022-11-15T01:38:53;93.53;;;45.45;;
73550;SDS011;61816;53.582;10.096;2022-11-15T01:41:21;113.28;;;47.92;;
73550;SDS011;61816;53.582;10.096;2022-11-15T01:43:52;91.50;;;42.88;;
73550;SDS011;61816;53.582;10.096;2022-11-15T01:46:34;91.75;;;42.63;;
73550;SDS011;61816;53.582;10.096;2022-11-15T01:49:04;99.20;;;45.47;;
73550;SDS011;61816;53.582;10.096;2022-11-15T01:51:36;95.70;;;45.72;;
73550;SDS011;61816;53.582;10.096;2022-11-15T01:54:06;104.72;;;47.00;;
73550;SDS011;61816;53.582;10.096;2022-11-15T01:56:38;107.05;;;47.15;;
73550;SDS011;61816;53.582;10.096;2022-11-15T01:59:11;122.35;;;50.15;;
73550;SDS011;61816;53.582;10.096;2022-11-15T02:01:37;110.35;;;49.40;;
73550;SDS011;61816;53.582;10.096;2022-11-15T02:06:56;91.45;;;41.25;;
73550;SDS011;61816;53.582;10.096;2022-11-15T02:09:21;106.32;;;45.42;;
73550;SDS011;61816;53.582;10.096;2022-11-15T02:11:47;106.18;;;45.28;;
73550;SDS011;61816;53.582;10.096;2022-11-15T02:14:15;104.47;;;47.25;;
73550;SDS011;61816;53.582;10.096;2022-11-15T02:16:59;94.43;;;43.55;;
73550;SDS011;61816;53.582;10.096;2022-11-15T02:19:40;126.05;;;48.20;;
73550;SDS011;61816;53.582;10.096;2022-11-15T02:25:41;103.57;;;47.22;;
73550;SDS011;61816;53.582;10.096;2022-11-15T02:28:37;99.75;;;43.70;;
73550;SDS011;61816;53.582;10.096;2022-11-15T02:33:54;90.55;;;43.28;;
73550;SDS011;61816;53.582;10.096;2022-11-15T02:38:55;101.18;;;43.97;;
73550;SDS011;61816;53.582;10.096;2022-11-15T02:42:04;100.05;;;44.28;;
73550;SDS011;61816;53.582;10.096;2022-11-15T02:44:58;93.72;;;41.97;;
73550;SDS011;61816;53.582;10.096;2022-11-15T02:49:57;87.68;;;39.42;;
73550;SDS011;61816;53.582;10.096;2022-11-15T02:52:25;93.97;;;43.47;;
73550;SDS011;61816;53.582;10.096;2022-11-15T02:54:55;83.18;;;41.03;;
73550;SDS011;61816;53.582;10.096;2022-11-15T03:00:11;87.35;;;43.35;;
73550;SDS011;61816;53.582;10.096;2022-11-15T03:02:49;93.33;;;44.20;;
73550;SDS011;61816;53.582;10.096;2022-11-15T03:05:51;107.60;;;46.88;;
73550;SDS011;61816;53.582;10.096;2022-11-15T03:08:29;107.32;;;46.05;;
73550;SDS011;61816;53.582;10.096;2022-11-15T03:18:48;97.00;;;42.65;;
73550;SDS011;61816;53.582;10.096;2022-11-15T03:21:18;89.13;;;41.78;;
73550;SDS011;61816;53.582;10.096;2022-11-15T03:23:46;115.18;;;47.58;;
73550;SDS011;61816;53.582;10.096;2022-11-15T03:26:15;87.72;;;40.13;;
73550;SDS011;61816;53.582;10.096;2022-11-15T03:31:17;114.20;;;47.10;;
73550;SDS011;61816;53.582;10.096;2022-11-15T03:34:05;93.32;;;42.53;;
73550;SDS011;61816;53.582;10.096;2022-11-15T03:36:35;97.00;;;42.33;;
73550;SDS011;61816;53.582;10.096;2022-11-15T03:39:05;91.82;;;41.97;;
73550;SDS011;61816;53.582;10.096;2022-11-15T03:41:37;96.90;;;44.25;;
73550;SDS011;61816;53.582;10.096;2022-11-15T03:44:11;89.45;;;41.25;;
73550;SDS011;61816;53.582;10.096;2022-11-15T03:49:33;116.78;;;43.95;;
73550;SDS011;61816;53.582;10.096;2022-11-15T03:52:00;97.43;;;42.40;;
73550;SDS011;61816;53.582;10.096;2022-11-15T03:54:28;93.00;;;42.00;;
73550;SDS011;61816;53.582;10.096;2022-11-15T03:56:53;79.57;;;37.75;;
73550;SDS011;61816;53.582;10.096;2022-11-15T03:59:19;76.22;;;37.55;;
73550;SDS011;61816;53.582;10.096;2022-11-15T04:01:44;79.63;;;37.63;;
73550;SDS011;61816;53.582;10.096;2022-11-15T04:04:10;76.32;;;38.45;;
73550;SDS011;61816;53.582;10.096;2022-11-15T04:06:35;77.75;;;39.25;;
73550;SDS011;61816;53.582;10.096;2022-11-15T04:09:01;81.32;;;38.13;;
73550;SDS011;61816;53.582;10.096;2022-11-15T04:11:26;75.03;;;37.10;;
73550;SDS011;61816;53.582;10.096;2022-11-15T04:13:51;78.80;;;38.28;;
73550;SDS011;61816;53.582;10.096;2022-11-15T04:16:17;74.30;;;34.70;;
73550;SDS011;61816;53.582;10.096;2022-11-15T04:18:42;71.60;;;34.22;;
73550;SDS011;61816;53.582;10.096;2022-11-15T04:21:08;79.80;;;34.83;;
73550;SDS011;61816;53.582;10.096;2022-11-15T04:23:52;60.28;;;29.88;;
73550;SDS011;61816;53.582;10.096;2022-11-15T04:26:29;77.45;;;38.20;;
73550;SDS011;61816;53.582;10.096;2022-11-15T04:28:55;81.03;;;36.83;;
73550;SDS011;61816;53.582;10.096;2022-11-15T04:31:38;83.22;;;37.53;;
73550;SDS011;61816;53.582;10.096;2022-11-15T04:34:04;80.32;;;36.95;;
73550;SDS011;61816;53.582;10.096;2022-11-15T04:36:29;90.97;;;40.92;;
73550;SDS011;61816;53.582;10.096;2022-11-15T04:39:13;85.35;;;40.00;;
73550;SDS011;61816;53.582;10.096;2022-11-15T04:41:38;74.38;;;36.88;;
73550;SDS011;61816;53.582;10.096;2022-11-15T04:44:04;79.70;;;39.35;;
73550;SDS011;61816;53.582;10.096;2022-11-15T04:46:29;87.35;;;39.10;;
73550;SDS011;61816;53.582;10.096;2022-11-15T04:48:55;66.25;;;32.83;;
73550;SDS011;61816;53.582;10.096;2022-11-15T04:51:20;66.20;;;32.28;;
73550;SDS011;61816;53.582;10.096;2022-11-15T04:53:46;77.80;;;37.13;;
73550;SDS011;61816;53.582;10.096;2022-11-15T04:56:11;78.45;;;36.88;;
73550;SDS011;61816;53.582;10.096;2022-11-15T04:58:37;66.45;;;32.30;;
73550;SDS011;61816;53.582;10.096;2022-11-15T05:01:06;74.50;;;37.50;;
73550;SDS011;61816;53.582;10.096;2022-11-15T05:03:37;84.78;;;38.28;;
73550;SDS011;61816;53.582;10.096;2022-11-15T05:06:21;81.38;;;38.22;;
73550;SDS011;61816;53.582;10.096;2022-11-15T05:08:47;73.28;;;36.00;;
73550;SDS011;61816;53.582;10.096;2022-11-15T05:11:12;69.30;;;33.28;;
73550;SDS011;61816;53.582;10.096;2022-11-15T05:13:37;69.88;;;35.47;;
73550;SDS011;61816;53.582;10.096;2022-11-15T05:16:03;82.32;;;36.42;;
73550;SDS011;61816;53.582;10.096;2022-11-15T05:18:28;78.05;;;35.05;;
73550;SDS011;61816;53.582;10.096;2022-11-15T05:20:54;87.45;;;38.92;;
73550;SDS011;61816;53.582;10.096;2022-11-15T05:23:19;83.57;;;37.10;;
73550;SDS011;61816;53.582;10.096;2022-11-15T05:25:44;76.63;;;36.70;;
73550;SDS011;61816;53.582;10.096;2022-11-15T05:28:10;73.50;;;34.50;;
73550;SDS011;61816;53.582;10.096;2022-11-15T05:30:35;64.35;;;32.75;;
73550;SDS011;61816;53.582;10.096;2022-11-15T05:33:01;69.53;;;33.33;;
73550;SDS011;61816;53.582;10.096;2022-11-15T05:35:31;74.25;;;35.83;;
73550;SDS011;61816;53.582;10.096;2022-11-15T05:38:02;70.30;;;32.63;;
73550;SDS011;61816;53.582;10.096;2022-11-15T05:40:27;74.32;;;33.70;;
73550;SDS011;61816;53.582;10.096;2022-11-15T05:42:54;62.15;;;32.05;;
73550;SDS011;61816;53.582;10.096;2022-11-15T05:45:20;78.78;;;37.47;;
73550;SDS011;61816;53.582;10.096;2022-11-15T05:47:46;80.88;;;35.25;;
73550;SDS011;61816;53.582;10.096;2022-11-15T05:50:14;72.90;;;36.15;;
73550;SDS011;61816;53.582;10.096;2022-11-15T05:52:42;69.03;;;34.50;;
73550;SDS011;61816;53.582;10.096;2022-11-15T05:55:08;70.78;;;35.25;;
73550;SDS011;61816;53.582;10.096;2022-11-15T05:57:34;67.78;;;35.03;;
73550;SDS011;61816;53.582;10.096;2022-11-15T06:00:01;62.42;;;33.40;;
73550;SDS011;61816;53.582;10.096;2022-11-15T06:02:28;70.63;;;34.10;;
73550;SDS011;61816;53.582;10.096;2022-11-15T06:04:54;72.22;;;36.03;;
73550;SDS011;61816;53.582;10.096;2022-11-15T06:07:19;75.28;;;35.33;;
73550;SDS011;61816;53.582;10.096;2022-11-15T06:09:44;60.25;;;31.17;;
73550;SDS011;61816;53.582;10.096;2022-11-15T06:12:10;61.17;;;30.45;;
73550;SDS011;61816;53.582;10.096;2022-11-15T06:14:35;68.68;;;33.80;;
73550;SDS011;61816;53.582;10.096;2022-11-15T06:17:00;78.05;;;36.42;;
73550;SDS011;61816;53.582;10.096;2022-11-15T06:19:26;70.00;;;34.95;;
73550;SDS011;61816;53.582;10.096;2022-11-15T06:21:52;77.22;;;35.55;;
73550;SDS011;61816;53.582;10.096;2022-11-15T06:24:17;72.50;;;36.10;;
73550;SDS011;61816;53.582;10.096;2022-11-15T06:26:43;70.13;;;36.03;;
73550;SDS011;61816;53.582;10.096;2022-11-15T06:29:08;73.05;;;36.83;;
73550;SDS011;61816;53.582;10.096;2022-11-15T06:31:34;66.65;;;35.55;;
73550;SDS011;61816;53.582;10.096;2022-11-15T06:33:59;66.47;;;36.22;;
73550;SDS011;61816;53.582;10.096;2022-11-15T06:36:25;69.72;;;38.10;;
73550;SDS011;61816;53.582;10.096;2022-11-15T06:38:50;78.50;;;40.50;;
73550;SDS011;61816;53.582;10.096;2022-11-15T06:41:16;66.40;;;35.25;;
73550;SDS011;61816;53.582;10.096;2022-11-15T06:43:42;78.57;;;38.40;;
73550;SDS011;61816;53.582;10.096;2022-11-15T06:46:08;65.00;;;35.53;;
73550;SDS011;61816;53.582;10.096;2022-11-15T06:48:34;69.88;;;35.17;;
73550;SDS011;61816;53.582;10.096;2022-11-15T06:51:00;63.63;;;33.05;;
73550;SDS011;61816;53.582;10.096;2022-11-15T06:53:26;83.70;;;37.38;;
73550;SDS011;61816;53.582;10.096;2022-11-15T06:55:53;64.43;;;33.30;;
73550;SDS011;61816;53.582;10.096;2022-11-15T06:58:18;76.90;;;37.40;;
73550;SDS011;61816;53.582;10.096;2022-11-15T07:00:46;62.80;;;33.95;;
73550;SDS011;61816;53.582;10.096;2022-11-15T07:03:11;67.47;;;34.97;;
73550;SDS011;61816;53.582;10.096;2022-11-15T07:05:37;64.10;;;33.83;;
73550;SDS011;61816;53.582;10.096;2022-11-15T07:08:03;70.43;;;36.33;;
73550;SDS011;61816;53.582;10.096;2022-11-15T07:10:29;65.68;;;32.40;;
73550;SDS011;61816;53.582;10.096;2022-11-15T07:12:54;71.68;;;34.95;;
73550;SDS011;61816;53.582;10.096;2022-11-15T07:15:21;66.22;;;34.92;;
73550;SDS011;61816;53.582;10.096;2022-11-15T07:17:48;61.38;;;34.15;;
73550;SDS011;61816;53.582;10.096;2022-11-15T07:20:14;52.88;;;30.45;;
73550;SDS011;61816;53.582;10.096;2022-11-15T07:22:58;65.22;;;34.03;;
73550;SDS011;61816;53.582;10.096;2022-11-15T07:25:25;59.50;;;32.63;;
73550;SDS011;61816;53.582;10.096;2022-11-15T07:27:54;59.75;;;31.58;;
73550;SDS011;61816;53.582;10.096;2022-11-15T07:30:20;55.63;;;30.95;;
73550;SDS011;61816;53.582;10.096;2022-11-15T07:32:45;55.33;;;31.33;;
73550;SDS011;61816;53.582;10.096;2022-11-15T07:35:11;57.00;;;31.33;;
73550;SDS011;61816;53.582;10.096;2022-11-15T07:37:37;57.17;;;32.63;;
73550;SDS011;61816;53.582;10.096;2022-11-15T07:40:02;64.97;;;32.67;;
73550;SDS011;61816;53.582;10.096;2022-11-15T07:42:28;59.17;;;32.95;;
73550;SDS011;61816;53.582;10.096;2022-11-15T07:45:15;62.65;;;31.73;;
73550;SDS011;61816;53.582;10.096;2022-11-15T07:47:40;64.43;;;34.17;;
73550;SDS011;61816;53.582;10.096;2022-11-15T07:50:05;54.72;;;28.60;;
73550;SDS011;61816;53.582;10.096;2022-11-15T07:52:31;61.15;;;31.23;;
73550;SDS011;61816;53.582;10.096;2022-11-15T07:54:56;61.50;;;31.80;;
73550;SDS011;61816;53.582;10.096;2022-11-15T07:57:21;63.58;;;33.90;;
73550;SDS011;61816;53.582;10.096;2022-11-15T07:59:47;52.40;;;29.83;;
73550;SDS011;61816;53.582;10.096;2022-11-15T08:02:12;59.17;;;31.10;;
73550;SDS011;61816;53.582;10.096;2022-11-15T08:04:38;55.72;;;29.40;;
73550;SDS011;61816;53.582;10.096;2022-11-15T08:07:03;56.03;;;29.05;;
73550;SDS011;61816;53.582;10.096;2022-11-15T08:09:29;57.00;;;31.23;;
73550;SDS011;61816;53.582;10.096;2022-11-15T08:11:54;59.42;;;33.45;;
73550;SDS011;61816;53.582;10.096;2022-11-15T08:14:19;59.55;;;31.13;;
73550;SDS011;61816;53.582;10.096;2022-11-15T08:16:47;60.92;;;31.02;;
73550;SDS011;61816;53.582;10.096;2022-11-15T08:19:12;53.05;;;30.65;;
73550;SDS011;61816;53.582;10.096;2022-11-15T08:21:38;53.72;;;28.83;;
73550;SDS011;61816;53.582;10.096;2022-11-15T08:24:03;46.00;;;27.40;;
73550;SDS011;61816;53.582;10.096;2022-11-15T08:26:29;53.97;;;29.60;;
73550;SDS011;61816;53.582;10.096;2022-11-15T08:28:55;60.28;;;30.13;;
73550;SDS011;61816;53.582;10.096;2022-11-15T08:31:20;61.60;;;29.35;;
73550;SDS011;61816;53.582;10.096;2022-11-15T08:33:46;56.28;;;29.17;;
73550;SDS011;61816;53.582;10.096;2022-11-15T08:36:12;51.53;;;29.38;;
73550;SDS011;61816;53.582;10.096;2022-11-15T08:38:40;55.03;;;28.13;;
73550;SDS011;61816;53.582;10.096;2022-11-15T08:41:05;55.80;;;27.90;;
73550;SDS011;61816;53.582;10.096;2022-11-15T08:43:31;54.85;;;29.05;;
73550;SDS011;61816;53.582;10.096;2022-11-15T08:45:57;48.88;;;28.33;;
73550;SDS011;61816;53.582;10.096;2022-11-15T08:48:23;50.25;;;28.33;;
73550;SDS011;61816;53.582;10.096;2022-11-15T08:50:48;57.83;;;29.90;;
73550;SDS011;61816;53.582;10.096;2022-11-15T08:53:14;56.30;;;31.05;;
73550;SDS011;61816;53.582;10.096;2022-11-15T08:55:39;51.20;;;28.80;;
73550;SDS011;61816;53.582;10.096;2022-11-15T08:58:06;49.08;;;27.45;;
73550;SDS011;61816;53.582;10.096;2022-11-15T09:00:32;52.33;;;27.63;;
73550;SDS011;61816;53.582;10.096;2022-11-15T09:02:58;52.13;;;27.55;;
73550;SDS011;61816;53.582;10.096;2022-11-15T09:05:24;49.78;;;27.85;;
73550;SDS011;61816;53.582;10.096;2022-11-15T09:07:54;51.35;;;26.98;;
73550;SDS011;61816;53.582;10.096;2022-11-15T09:10:20;52.03;;;26.73;;
73550;SDS011;61816;53.582;10.096;2022-11-15T09:12:46;49.90;;;27.02;;
73550;SDS011;61816;53.582;10.096;2022-11-15T09:15:13;48.70;;;26.90;;
73550;SDS011;61816;53.582;10.096;2022-11-15T09:17:40;45.63;;;26.50;;
73550;SDS011;61816;53.582;10.096;2022-11-15T09:20:05;46.80;;;26.95;;
73550;SDS011;61816;53.582;10.096;2022-11-15T09:22:32;42.42;;;25.52;;
73550;SDS011;61816;53.582;10.096;2022-11-15T09:24:57;40.95;;;25.38;;
73550;SDS011;61816;53.582;10.096;2022-11-15T09:27:26;41.97;;;25.23;;
73550;SDS011;61816;53.582;10.096;2022-11-15T09:29:53;46.13;;;24.52;;
73550;SDS011;61816;53.582;10.096;2022-11-15T09:32:18;50.55;;;25.95;;
73550;SDS011;61816;53.582;10.096;2022-11-15T09:34:43;40.58;;;24.08;;
73550;SDS011;61816;53.582;10.096;2022-11-15T09:37:09;45.33;;;26.33;;
73550;SDS011;61816;53.582;10.096;2022-11-15T09:39:34;40.30;;;24.63;;
73550;SDS011;61816;53.582;10.096;2022-11-15T09:50:14;44.67;;;23.50;;
73550;SDS011;61816;53.582;10.096;2022-11-15T09:52:43;42.90;;;24.63;;
73550;SDS011;61816;53.582;10.096;2022-11-15T09:55:10;45.25;;;22.88;;
73550;SDS011;61816;53.582;10.096;2022-11-15T09:57:54;37.47;;;21.70;;
73550;SDS011;61816;53.582;10.096;2022-11-15T10:00:35;35.38;;;21.98;;
73550;SDS011;61816;53.582;10.096;2022-11-15T10:05:48;41.13;;;22.20;;
73550;SDS011;61816;53.582;10.096;2022-11-15T10:08:22;38.38;;;21.02;;
73550;SDS011;61816;53.582;10.096;2022-11-15T10:10:58;40.40;;;21.67;;
73550;SDS011;61816;53.582;10.096;2022-11-15T10:13:26;36.60;;;22.02;;
73550;SDS011;61816;53.582;10.096;2022-11-15T10:15:56;36.65;;;21.30;;
73550;SDS011;61816;53.582;10.096;2022-11-15T10:21:24;29.67;;;19.02;;
73550;SDS011;61816;53.582;10.096;2022-11-15T10:23:59;41.78;;;20.35;;
73550;SDS011;61816;53.582;10.096;2022-11-15T10:26:26;29.88;;;18.50;;
73550;SDS011;61816;53.582;10.096;2022-11-15T10:28:51;36.75;;;18.08;;
73550;SDS011;61816;53.582;10.096;2022-11-15T10:31:24;33.97;;;19.65;;
73550;SDS011;61816;53.582;10.096;2022-11-15T10:34:15;37.67;;;18.52;;
73550;SDS011;61816;53.582;10.096;2022-11-15T10:36:54;38.30;;;21.13;;
73550;SDS011;61816;53.582;10.096;2022-11-15T10:39:21;26.95;;;17.30;;
73550;SDS011;61816;53.582;10.096;2022-11-15T10:41:46;32.95;;;17.02;;
73550;SDS011;61816;53.582;10.096;2022-11-15T10:49:21;33.35;;;16.88;;
73550;SDS011;61816;53.582;10.096;2022-11-15T10:51:57;23.77;;;14.40;;
73550;SDS011;61816;53.582;10.096;2022-11-15T10:57:13;35.33;;;17.88;;
73550;SDS011;61816;53.582;10.096;2022-11-15T11:00:26;32.85;;;15.55;;
73550;SDS011;61816;53.582;10.096;2022-11-15T11:05:33;30.42;;;15.90;;
73550;SDS011;61816;53.582;10.096;2022-11-15T11:08:09;26.88;;;15.38;;
73550;SDS011;61816;53.582;10.096;2022-11-15T11:10:53;24.08;;;14.80;;
73550;SDS011;61816;53.582;10.096;2022-11-15T11:13:24;27.58;;;15.00;;
73550;SDS011;61816;53.582;10.096;2022-11-15T11:16:06;27.77;;;15.63;;
73550;SDS011;61816;53.582;10.096;2022-11-15T11:29:42;24.20;;;14.50;;
73550;SDS011;61816;53.582;10.096;2022-11-15T11:32:28;27.33;;;15.82;;
73550;SDS011;61816;53.582;10.096;2022-11-15T11:37:51;37.70;;;17.00;;
73550;SDS011;61816;53.582;10.096;2022-11-15T11:40:42;27.35;;;15.82;;
73550;SDS011;61816;53.582;10.096;2022-11-15T11:43:24;25.67;;;15.88;;
73550;SDS011;61816;53.582;10.096;2022-11-15T11:48:42;29.67;;;15.38;;
73550;SDS011;61816;53.582;10.096;2022-11-15T11:51:17;24.92;;;15.27;;
73550;SDS011;61816;53.582;10.096;2022-11-15T11:53:48;31.92;;;15.35;;
73550;SDS011;61816;53.582;10.096;2022-11-15T11:56:23;24.20;;;14.65;;
73550;SDS011;61816;53.582;10.096;2022-11-15T11:58:53;26.60;;;14.95;;
73550;SDS011;61816;53.582;10.096;2022-11-15T12:01:22;35.90;;;15.77;;
73550;SDS011;61816;53.582;10.096;2022-11-15T12:09:52;26.80;;;14.82;;
73550;SDS011;61816;53.582;10.096;2022-11-15T12:15:18;31.52;;;14.60;;
73550;SDS011;61816;53.582;10.096;2022-11-15T12:17:47;29.50;;;16.88;;
73550;SDS011;61816;53.582;10.096;2022-11-15T12:20:21;25.08;;;14.65;;
73550;SDS011;61816;53.582;10.096;2022-11-15T12:22:52;26.92;;;14.23;;
73550;SDS011;61816;53.582;10.096;2022-11-15T12:25:23;27.40;;;15.52;;
73550;SDS011;61816;53.582;10.096;2022-11-15T12:31:26;33.08;;;15.43;;
73550;SDS011;61816;53.582;10.096;2022-11-15T12:34:01;27.63;;;14.52;;
73550;SDS011;61816;53.582;10.096;2022-11-15T12:39:05;20.95;;;13.38;;
73550;SDS011;61816;53.582;10.096;2022-11-15T12:41:34;26.65;;;14.68;;
73550;SDS011;61816;53.582;10.096;2022-11-15T12:44:02;23.10;;;12.90;;
73550;SDS011;61816;53.582;10.096;2022-11-15T12:49:00;22.38;;;13.75;;
73550;SDS011;61816;53.582;10.096;2022-11-15T12:59:50;20.52;;;11.98;;
73550;SDS011;61816;53.582;10.096;2022-11-15T13:02:41;23.55;;;13.43;;
73550;SDS011;61816;53.582;10.096;2022-11-15T13:17:42;26.67;;;12.43;;
73550;SDS011;61816;53.582;10.096;2022-11-15T13:22:41;26.30;;;12.82;;
73550;SDS011;61816;53.582;10.096;2022-11-15T13:30:49;22.02;;;12.65;;
73550;SDS011;61816;53.582;10.096;2022-11-15T13:33:22;22.75;;;13.35;;
73550;SDS011;61816;53.582;10.096;2022-11-15T13:35:52;22.75;;;12.50;;
73550;SDS011;61816;53.582;10.096;2022-11-15T13:38:28;30.92;;;13.30;;
73550;SDS011;61816;53.582;10.096;2022-11-15T13:40:55;18.95;;;12.18;;
73550;SDS011;61816;53.582;10.096;2022-11-15T13:48:40;21.58;;;11.95;;
73550;SDS011;61816;53.582;10.096;2022-11-15T13:53:58;20.27;;;13.15;;
73550;SDS011;61816;53.582;10.096;2022-11-15T13:56:46;24.48;;;11.32;;
73550;SDS011;61816;53.582;10.096;2022-11-15T13:59:20;23.63;;;11.77;;
73550;SDS011;61816;53.582;10.096;2022-11-15T14:01:46;21.42;;;11.98;;
73550;SDS011;61816;53.582;10.096;2022-11-15T14:04:13;18.40;;;11.48;;
73550;SDS011;61816;53.582;10.096;2022-11-15T14:06:46;27.55;;;12.02;;
73550;SDS011;61816;53.582;10.096;2022-11-15T14:11:51;31.80;;;12.55;;
73550;SDS011;61816;53.582;10.096;2022-11-15T14:14:19;20.35;;;11.23;;
73550;SDS011;61816;53.582;10.096;2022-11-15T14:17:19;22.08;;;12.18;;
73550;SDS011;61816;53.582;10.096;2022-11-15T14:19:44;21.95;;;12.25;;
73550;SDS011;61816;53.582;10.096;2022-11-15T14:24:45;20.15;;;11.82;;
73550;SDS011;61816;53.582;10.096;2022-11-15T14:27:28;16.90;;;10.70;;
73550;SDS011;61816;53.582;10.096;2022-11-15T14:29:54;23.05;;;11.77;;
73550;SDS011;61816;53.582;10.096;2022-11-15T14:32:23;20.60;;;11.30;;
73550;SDS011;61816;53.582;10.096;2022-11-15T14:35:00;21.10;;;11.73;;
73550;SDS011;61816;53.582;10.096;2022-11-15T14:37:28;23.17;;;12.35;;
73550;SDS011;61816;53.582;10.096;2022-11-15T14:40:00;19.40;;;11.18;;
73550;SDS011;61816;53.582;10.096;2022-11-15T14:42:27;18.33;;;11.50;;
73550;SDS011;61816;53.582;10.096;2022-11-15T14:44:52;19.55;;;11.85;;
73550;SDS011;61816;53.582;10.096;2022-11-15T14:47:18;25.92;;;11.20;;
73550;SDS011;61816;53.582;10.096;2022-11-15T14:49:43;24.25;;;11.95;;
73550;SDS011;61816;53.582;10.096;2022-11-15T14:54:47;20.92;;;11.68;;
73550;SDS011;61816;53.582;10.096;2022-11-15T14:57:13;17.85;;;10.98;;
73550;SDS011;61816;53.582;10.096;2022-11-15T14:59:41;24.48;;;11.82;;
73550;SDS011;61816;53.582;10.096;2022-11-15T15:04:43;19.77;;;12.20;;
73550;SDS011;61816;53.582;10.096;2022-11-15T15:07:08;21.73;;;12.45;;
73550;SDS011;61816;53.582;10.096;2022-11-15T15:09:34;22.15;;;12.00;;
73550;SDS011;61816;53.582;10.096;2022-11-15T15:11:59;20.48;;;12.05;;
73550;SDS011;61816;53.582;10.096;2022-11-15T15:14:25;26.30;;;12.07;;
73550;SDS011;61816;53.582;10.096;2022-11-15T15:16:50;24.42;;;13.07;;
73550;SDS011;61816;53.582;10.096;2022-11-15T15:19:15;17.42;;;11.30;;
73550;SDS011;61816;53.582;10.096;2022-11-15T15:21:41;25.45;;;12.20;;
73550;SDS011;61816;53.582;10.096;2022-11-15T15:24:07;21.77;;;12.35;;
73550;SDS011;61816;53.582;10.096;2022-11-15T15:26:38;18.15;;;11.57;;
73550;SDS011;61816;53.582;10.096;2022-11-15T15:29:04;24.27;;;12.68;;
73550;SDS011;61816;53.582;10.096;2022-11-15T15:31:29;24.80;;;12.77;;
73550;SDS011;61816;53.582;10.096;2022-11-15T15:33:55;18.88;;;12.32;;
73550;SDS011;61816;53.582;10.096;2022-11-15T15:36:20;28.30;;;13.05;;
73550;SDS011;61816;53.582;10.096;2022-11-15T15:38:46;26.20;;;12.60;;
73550;SDS011;61816;53.582;10.096;2022-11-15T15:41:12;25.90;;;12.85;;
73550;SDS011;61816;53.582;10.096;2022-11-15T15:43:39;22.70;;;13.55;;
73550;SDS011;61816;53.582;10.096;2022-11-15T15:46:07;24.70;;;13.32;;
73550;SDS011;61816;53.582;10.096;2022-11-15T15:48:35;24.27;;;13.93;;
73550;SDS011;61816;53.582;10.096;2022-11-15T15:51:02;22.10;;;12.88;;
73550;SDS011;61816;53.582;10.096;2022-11-15T15:53:27;24.63;;;13.48;;
73550;SDS011;61816;53.582;10.096;2022-11-15T15:55:53;24.30;;;13.63;;
73550;SDS011;61816;53.582;10.096;2022-11-15T15:58:18;25.08;;;14.07;;
73550;SDS011;61816;53.582;10.096;2022-11-15T16:00:43;22.10;;;13.93;;
73550;SDS011;61816;53.582;10.096;2022-11-15T16:03:08;23.42;;;14.50;;
73550;SDS011;61816;53.582;10.096;2022-11-15T16:05:34;30.83;;;14.18;;
73550;SDS011;61816;53.582;10.096;2022-11-15T16:07:59;25.10;;;14.82;;
73550;SDS011;61816;53.582;10.096;2022-11-15T16:10:29;24.80;;;14.40;;
73550;SDS011;61816;53.582;10.096;2022-11-15T16:13:01;25.23;;;14.27;;
73550;SDS011;61816;53.582;10.096;2022-11-15T16:15:29;21.10;;;13.75;;
73550;SDS011;61816;53.582;10.096;2022-11-15T16:17:56;31.08;;;16.00;;
73550;SDS011;61816;53.582;10.096;2022-11-15T16:20:28;24.95;;;14.82;;
73550;SDS011;61816;53.582;10.096;2022-11-15T16:22:54;32.70;;;15.13;;
73550;SDS011;61816;53.582;10.096;2022-11-15T16:25:19;27.90;;;14.23;;
73550;SDS011;61816;53.582;10.096;2022-11-15T16:27:44;26.20;;;14.18;;
73550;SDS011;61816;53.582;10.096;2022-11-15T16:30:15;24.30;;;15.55;;
73550;SDS011;61816;53.582;10.096;2022-11-15T16:32:41;25.38;;;13.82;;
73550;SDS011;61816;53.582;10.096;2022-11-15T16:35:09;27.50;;;15.43;;
73550;SDS011;61816;53.582;10.096;2022-11-15T16:37:38;26.02;;;14.55;;